sensor_id;sensor_type;location;lat;lon;timestamp;P1;durP1;ratioP1;P2;durP2;ratioP2
17382;SDS011;8809;51.892;8.384;2023-03-01T00:01:29;7.63;;;5.50;;
17382;SDS011;8809;51.892;8.384;2023-03-01T00:03:59;7.10;;;5.70;;
17382;SDS011;8809;51.892;8.384;2023-03-01T00:06:26;7.65;;;5.80;;
17382;SDS011;8809;51.892;8.384;2023-03-01T00:08:54;8.15;;;5.55;;
17382;SDS011;8809;51.892;8.384;2023-03-01T00:11:22;8.98;;;6.03;;
17382;SDS011;8809;51.892;8.384;2023-03-01T00:13:51;7.88;;;6.10;;
17382;SDS011;8809;51.892;8.384;2023-03-01T00:16:20;8.52;;;5.85;;
17382;SDS011;8809;51.892;8.384;2023-03-01T00:18:49;7.55;;;5.60;;
17382;SDS011;8809;51.892;8.384;2023-03-01T00:21:18;7.50;;;5.85;;
17382;SDS011;8809;51.892;8.384;2023-03-01T00:23:47;8.43;;;5.85;;
17382;SDS011;8809;51.892;8.384;2023-03-01T00:26:15;8.07;;;6.30;;
17382;SDS011;8809;51.892;8.384;2023-03-01T00:28:43;7.47;;;5.47;;
17382;SDS011;8809;51.892;8.384;2023-03-01T00:31:11;7.40;;;5.25;;
17382;SDS011;8809;51.892;8.384;2023-03-01T00:33:39;8.93;;;5.45;;
17382;SDS011;8809;51.892;8.384;2023-03-01T00:36:07;6.70;;;4.97;;
17382;SDS011;8809;51.892;8.384;2023-03-01T00:38:37;8.15;;;5.35;;
17382;SDS011;8809;51.892;8.384;2023-03-01T00:41:05;8.80;;;5.32;;
17382;SDS011;8809;51.892;8.384;2023-03-01T00:43:33;6.93;;;5.22;;
17382;SDS011;8809;51.892;8.384;2023-03-01T00:46:02;6.35;;;4.90;;
17382;SDS011;8809;51.892;8.384;2023-03-01T00:48:29;7.10;;;5.10;;
17382;SDS011;8809;51.892;8.384;2023-03-01T00:50:56;7.13;;;5.63;;
17382;SDS011;8809;51.892;8.384;2023-03-01T00:53:23;7.45;;;5.90;;
17382;SDS011;8809;51.892;8.384;2023-03-01T00:55:52;6.65;;;5.43;;
17382;SDS011;8809;51.892;8.384;2023-03-01T00:58:19;8.25;;;5.53;;
17382;SDS011;8809;51.892;8.384;2023-03-01T01:00:46;6.13;;;4.68;;
17382;SDS011;8809;51.892;8.384;2023-03-01T01:03:13;8.27;;;5.88;;
17382;SDS011;8809;51.892;8.384;2023-03-01T01:05:40;7.25;;;5.10;;
17382;SDS011;8809;51.892;8.384;2023-03-01T01:08:07;7.25;;;4.85;;
17382;SDS011;8809;51.892;8.384;2023-03-01T01:10:34;7.03;;;5.05;;
17382;SDS011;8809;51.892;8.384;2023-03-01T01:13:03;8.30;;;5.43;;
17382;SDS011;8809;51.892;8.384;2023-03-01T01:15:32;7.35;;;5.13;;
17382;SDS011;8809;51.892;8.384;2023-03-01T01:18:00;6.97;;;4.97;;
17382;SDS011;8809;51.892;8.384;2023-03-01T01:20:27;6.47;;;5.43;;
17382;SDS011;8809;51.892;8.384;2023-03-01T01:22:54;8.15;;;5.53;;
17382;SDS011;8809;51.892;8.384;2023-03-01T01:25:21;7.70;;;5.40;;
17382;SDS011;8809;51.892;8.384;2023-03-01T01:27:50;7.65;;;5.82;;
17382;SDS011;8809;51.892;8.384;2023-03-01T01:30:19;6.47;;;5.15;;
17382;SDS011;8809;51.892;8.384;2023-03-01T01:32:46;6.78;;;5.32;;
17382;SDS011;8809;51.892;8.384;2023-03-01T01:35:13;6.78;;;5.20;;
17382;SDS011;8809;51.892;8.384;2023-03-01T01:37:40;6.88;;;4.97;;
17382;SDS011;8809;51.892;8.384;2023-03-01T01:40:08;7.35;;;4.78;;
17382;SDS011;8809;51.892;8.384;2023-03-01T01:42:37;8.85;;;5.70;;
17382;SDS011;8809;51.892;8.384;2023-03-01T01:45:26;7.00;;;4.95;;
17382;SDS011;8809;51.892;8.384;2023-03-01T01:47:57;7.03;;;5.30;;
17382;SDS011;8809;51.892;8.384;2023-03-01T01:50:30;8.32;;;5.20;;
17382;SDS011;8809;51.892;8.384;2023-03-01T01:53:04;8.13;;;5.47;;
17382;SDS011;8809;51.892;8.384;2023-03-01T01:55:33;7.57;;;5.82;;
17382;SDS011;8809;51.892;8.384;2023-03-01T01:58:04;6.43;;;4.68;;
17382;SDS011;8809;51.892;8.384;2023-03-01T02:00:35;6.65;;;5.03;;
17382;SDS011;8809;51.892;8.384;2023-03-01T02:03:04;7.22;;;4.53;;
17382;SDS011;8809;51.892;8.384;2023-03-01T02:05:36;6.88;;;4.95;;
17382;SDS011;8809;51.892;8.384;2023-03-01T02:08:10;6.18;;;5.03;;
17382;SDS011;8809;51.892;8.384;2023-03-01T02:10:38;6.47;;;4.57;;
17382;SDS011;8809;51.892;8.384;2023-03-01T02:13:07;5.35;;;4.65;;
17382;SDS011;8809;51.892;8.384;2023-03-01T02:15:36;6.35;;;4.50;;
17382;SDS011;8809;51.892;8.384;2023-03-01T02:18:05;5.13;;;4.20;;
17382;SDS011;8809;51.892;8.384;2023-03-01T02:20:34;6.95;;;4.72;;
17382;SDS011;8809;51.892;8.384;2023-03-01T02:23:06;5.93;;;4.55;;
17382;SDS011;8809;51.892;8.384;2023-03-01T02:25:37;6.28;;;4.60;;
17382;SDS011;8809;51.892;8.384;2023-03-01T02:28:25;6.90;;;5.07;;
17382;SDS011;8809;51.892;8.384;2023-03-01T02:30:56;6.97;;;5.00;;
17382;SDS011;8809;51.892;8.384;2023-03-01T02:33:41;7.50;;;4.85;;
17382;SDS011;8809;51.892;8.384;2023-03-01T02:36:10;6.13;;;4.65;;
17382;SDS011;8809;51.892;8.384;2023-03-01T02:38:41;7.18;;;4.93;;
17382;SDS011;8809;51.892;8.384;2023-03-01T02:41:08;9.20;;;5.00;;
17382;SDS011;8809;51.892;8.384;2023-03-01T02:43:40;5.40;;;4.07;;
17382;SDS011;8809;51.892;8.384;2023-03-01T02:46:08;6.28;;;5.38;;
17382;SDS011;8809;51.892;8.384;2023-03-01T02:48:42;7.63;;;5.40;;
17382;SDS011;8809;51.892;8.384;2023-03-01T02:51:12;5.97;;;4.72;;
17382;SDS011;8809;51.892;8.384;2023-03-01T02:54:05;7.85;;;5.35;;
17382;SDS011;8809;51.892;8.384;2023-03-01T02:56:37;6.10;;;4.95;;
17382;SDS011;8809;51.892;8.384;2023-03-01T02:59:06;7.10;;;4.82;;
17382;SDS011;8809;51.892;8.384;2023-03-01T03:01:33;6.22;;;4.60;;
17382;SDS011;8809;51.892;8.384;2023-03-01T03:04:07;6.55;;;4.78;;
17382;SDS011;8809;51.892;8.384;2023-03-01T03:27:30;7.50;;;4.97;;
17382;SDS011;8809;51.892;8.384;2023-03-01T03:29:58;5.93;;;4.63;;
17382;SDS011;8809;51.892;8.384;2023-03-01T03:32:25;6.45;;;4.90;;
17382;SDS011;8809;51.892;8.384;2023-03-01T03:34:56;7.82;;;4.95;;
17382;SDS011;8809;51.892;8.384;2023-03-01T03:37:23;5.80;;;4.70;;
17382;SDS011;8809;51.892;8.384;2023-03-01T03:40:09;5.95;;;4.28;;
17382;SDS011;8809;51.892;8.384;2023-03-01T03:42:41;6.80;;;4.25;;
17382;SDS011;8809;51.892;8.384;2023-03-01T03:45:08;5.70;;;4.53;;
17382;SDS011;8809;51.892;8.384;2023-03-01T03:47:36;6.05;;;4.55;;
17382;SDS011;8809;51.892;8.384;2023-03-01T03:50:04;5.90;;;4.32;;
17382;SDS011;8809;51.892;8.384;2023-03-01T03:52:32;6.57;;;4.82;;
17382;SDS011;8809;51.892;8.384;2023-03-01T03:54:59;7.88;;;4.65;;
17382;SDS011;8809;51.892;8.384;2023-03-01T03:57:26;7.03;;;4.93;;
17382;SDS011;8809;51.892;8.384;2023-03-01T03:59:54;7.25;;;4.50;;
17382;SDS011;8809;51.892;8.384;2023-03-01T04:02:22;7.88;;;5.13;;
17382;SDS011;8809;51.892;8.384;2023-03-01T04:04:59;7.05;;;5.45;;
17382;SDS011;8809;51.892;8.384;2023-03-01T04:07:26;6.55;;;5.00;;
17382;SDS011;8809;51.892;8.384;2023-03-01T04:09:54;7.20;;;4.88;;
17382;SDS011;8809;51.892;8.384;2023-03-01T04:12:21;7.40;;;5.13;;
17382;SDS011;8809;51.892;8.384;2023-03-01T04:14:48;6.53;;;4.90;;
17382;SDS011;8809;51.892;8.384;2023-03-01T04:17:17;6.55;;;5.03;;
17382;SDS011;8809;51.892;8.384;2023-03-01T04:19:44;7.57;;;5.25;;
17382;SDS011;8809;51.892;8.384;2023-03-01T04:22:13;7.95;;;5.03;;
17382;SDS011;8809;51.892;8.384;2023-03-01T04:24:43;6.45;;;5.00;;
17382;SDS011;8809;51.892;8.384;2023-03-01T04:27:10;7.90;;;5.60;;
17382;SDS011;8809;51.892;8.384;2023-03-01T04:29:38;7.20;;;5.53;;
17382;SDS011;8809;51.892;8.384;2023-03-01T04:32:06;8.27;;;5.93;;
17382;SDS011;8809;51.892;8.384;2023-03-01T04:34:35;8.63;;;5.63;;
17382;SDS011;8809;51.892;8.384;2023-03-01T04:37:02;6.50;;;5.65;;
17382;SDS011;8809;51.892;8.384;2023-03-01T04:39:30;8.02;;;5.88;;
17382;SDS011;8809;51.892;8.384;2023-03-01T04:41:57;6.88;;;5.28;;
17382;SDS011;8809;51.892;8.384;2023-03-01T04:44:25;7.28;;;5.70;;
17382;SDS011;8809;51.892;8.384;2023-03-01T04:46:52;7.18;;;5.82;;
17382;SDS011;8809;51.892;8.384;2023-03-01T04:49:19;8.60;;;6.28;;
17382;SDS011;8809;51.892;8.384;2023-03-01T04:51:47;10.18;;;6.18;;
17382;SDS011;8809;51.892;8.384;2023-03-01T04:54:14;8.40;;;6.30;;
17382;SDS011;8809;51.892;8.384;2023-03-01T04:56:41;7.70;;;5.63;;
17382;SDS011;8809;51.892;8.384;2023-03-01T04:59:08;8.75;;;6.40;;
17382;SDS011;8809;51.892;8.384;2023-03-01T05:01:37;9.60;;;6.45;;
17382;SDS011;8809;51.892;8.384;2023-03-01T05:04:08;9.65;;;6.18;;
17382;SDS011;8809;51.892;8.384;2023-03-01T05:06:38;7.85;;;6.13;;
17382;SDS011;8809;51.892;8.384;2023-03-01T05:09:07;8.00;;;5.65;;
17382;SDS011;8809;51.892;8.384;2023-03-01T05:11:34;8.48;;;6.55;;
17382;SDS011;8809;51.892;8.384;2023-03-01T05:14:02;9.98;;;6.60;;
17382;SDS011;8809;51.892;8.384;2023-03-01T05:16:29;10.02;;;6.43;;
17382;SDS011;8809;51.892;8.384;2023-03-01T05:18:57;9.63;;;6.47;;
17382;SDS011;8809;51.892;8.384;2023-03-01T05:21:24;9.00;;;6.40;;
17382;SDS011;8809;51.892;8.384;2023-03-01T05:23:52;8.60;;;6.95;;
17382;SDS011;8809;51.892;8.384;2023-03-01T05:26:20;8.07;;;6.18;;
17382;SDS011;8809;51.892;8.384;2023-03-01T05:28:53;9.50;;;6.55;;
17382;SDS011;8809;51.892;8.384;2023-03-01T05:31:23;8.60;;;5.80;;
17382;SDS011;8809;51.892;8.384;2023-03-01T05:33:51;8.40;;;6.10;;
17382;SDS011;8809;51.892;8.384;2023-03-01T05:36:18;8.98;;;6.32;;
17382;SDS011;8809;51.892;8.384;2023-03-01T05:38:45;9.07;;;6.35;;
17382;SDS011;8809;51.892;8.384;2023-03-01T05:41:13;9.38;;;6.35;;
17382;SDS011;8809;51.892;8.384;2023-03-01T05:43:43;8.38;;;6.13;;
17382;SDS011;8809;51.892;8.384;2023-03-01T05:46:10;7.68;;;5.93;;
17382;SDS011;8809;51.892;8.384;2023-03-01T05:48:38;9.43;;;6.75;;
17382;SDS011;8809;51.892;8.384;2023-03-01T05:51:05;9.20;;;6.40;;
17382;SDS011;8809;51.892;8.384;2023-03-01T05:53:32;11.35;;;6.35;;
17382;SDS011;8809;51.892;8.384;2023-03-01T05:56:02;10.23;;;6.05;;
17382;SDS011;8809;51.892;8.384;2023-03-01T05:58:29;9.63;;;6.40;;
17382;SDS011;8809;51.892;8.384;2023-03-01T06:00:58;9.55;;;5.93;;
17382;SDS011;8809;51.892;8.384;2023-03-01T06:03:25;8.68;;;6.43;;
17382;SDS011;8809;51.892;8.384;2023-03-01T06:05:55;7.78;;;5.60;;
17382;SDS011;8809;51.892;8.384;2023-03-01T06:08:22;8.55;;;5.88;;
17382;SDS011;8809;51.892;8.384;2023-03-01T06:10:52;9.38;;;6.45;;
17382;SDS011;8809;51.892;8.384;2023-03-01T06:13:19;9.63;;;6.70;;
17382;SDS011;8809;51.892;8.384;2023-03-01T06:15:46;9.70;;;6.38;;
17382;SDS011;8809;51.892;8.384;2023-03-01T06:18:15;10.63;;;6.97;;
17382;SDS011;8809;51.892;8.384;2023-03-01T06:20:42;10.10;;;6.78;;
17382;SDS011;8809;51.892;8.384;2023-03-01T06:23:09;9.38;;;7.00;;
17382;SDS011;8809;51.892;8.384;2023-03-01T06:25:36;8.68;;;5.80;;
17382;SDS011;8809;51.892;8.384;2023-03-01T06:28:04;9.55;;;6.78;;
17382;SDS011;8809;51.892;8.384;2023-03-01T06:30:31;10.93;;;6.88;;
17382;SDS011;8809;51.892;8.384;2023-03-01T06:32:58;8.70;;;6.40;;
17382;SDS011;8809;51.892;8.384;2023-03-01T06:35:28;9.98;;;6.70;;
17382;SDS011;8809;51.892;8.384;2023-03-01T06:37:56;8.60;;;6.20;;
17382;SDS011;8809;51.892;8.384;2023-03-01T06:40:25;9.77;;;6.93;;
17382;SDS011;8809;51.892;8.384;2023-03-01T06:42:52;11.02;;;7.38;;
17382;SDS011;8809;51.892;8.384;2023-03-01T06:45:20;10.02;;;7.20;;
17382;SDS011;8809;51.892;8.384;2023-03-01T06:47:48;9.35;;;6.05;;
17382;SDS011;8809;51.892;8.384;2023-03-01T06:50:16;8.65;;;6.25;;
17382;SDS011;8809;51.892;8.384;2023-03-01T06:52:46;8.98;;;6.10;;
17382;SDS011;8809;51.892;8.384;2023-03-01T06:55:13;8.85;;;6.10;;
17382;SDS011;8809;51.892;8.384;2023-03-01T06:57:41;6.95;;;5.60;;
17382;SDS011;8809;51.892;8.384;2023-03-01T07:00:09;9.18;;;6.15;;
17382;SDS011;8809;51.892;8.384;2023-03-01T07:02:38;8.68;;;6.38;;
17382;SDS011;8809;51.892;8.384;2023-03-01T07:05:07;8.63;;;6.65;;
17382;SDS011;8809;51.892;8.384;2023-03-01T07:07:34;12.02;;;6.15;;
17382;SDS011;8809;51.892;8.384;2023-03-01T07:10:10;8.35;;;5.63;;
17382;SDS011;8809;51.892;8.384;2023-03-01T07:12:38;8.00;;;6.03;;
17382;SDS011;8809;51.892;8.384;2023-03-01T07:15:08;8.45;;;5.45;;
17382;SDS011;8809;51.892;8.384;2023-03-01T07:17:36;7.15;;;5.18;;
17382;SDS011;8809;51.892;8.384;2023-03-01T07:20:07;7.35;;;5.25;;
17382;SDS011;8809;51.892;8.384;2023-03-01T07:22:35;6.30;;;4.90;;
17382;SDS011;8809;51.892;8.384;2023-03-01T07:25:03;7.40;;;4.85;;
17382;SDS011;8809;51.892;8.384;2023-03-01T07:27:32;6.82;;;4.90;;
17382;SDS011;8809;51.892;8.384;2023-03-01T07:30:01;6.93;;;5.18;;
17382;SDS011;8809;51.892;8.384;2023-03-01T07:32:33;6.57;;;4.68;;
17382;SDS011;8809;51.892;8.384;2023-03-01T07:35:01;7.45;;;5.20;;
17382;SDS011;8809;51.892;8.384;2023-03-01T07:37:31;8.98;;;5.20;;
17382;SDS011;8809;51.892;8.384;2023-03-01T07:39:59;6.03;;;5.13;;
17382;SDS011;8809;51.892;8.384;2023-03-01T07:42:26;6.35;;;4.57;;
17382;SDS011;8809;51.892;8.384;2023-03-01T07:44:55;6.88;;;5.05;;
17382;SDS011;8809;51.892;8.384;2023-03-01T07:47:22;6.85;;;4.53;;
17382;SDS011;8809;51.892;8.384;2023-03-01T07:49:52;8.80;;;5.22;;
17382;SDS011;8809;51.892;8.384;2023-03-01T07:52:20;7.15;;;5.25;;
17382;SDS011;8809;51.892;8.384;2023-03-01T07:54:47;6.68;;;5.40;;
17382;SDS011;8809;51.892;8.384;2023-03-01T07:57:15;7.85;;;4.93;;
17382;SDS011;8809;51.892;8.384;2023-03-01T07:59:42;9.23;;;5.88;;
17382;SDS011;8809;51.892;8.384;2023-03-01T08:02:11;7.65;;;4.97;;
17382;SDS011;8809;51.892;8.384;2023-03-01T08:04:40;7.43;;;5.32;;
17382;SDS011;8809;51.892;8.384;2023-03-01T08:07:07;7.75;;;5.75;;
17382;SDS011;8809;51.892;8.384;2023-03-01T08:09:35;8.80;;;5.90;;
17382;SDS011;8809;51.892;8.384;2023-03-01T08:12:05;6.97;;;5.03;;
17382;SDS011;8809;51.892;8.384;2023-03-01T08:14:32;8.55;;;5.80;;
17382;SDS011;8809;51.892;8.384;2023-03-01T08:17:00;8.02;;;5.75;;
17382;SDS011;8809;51.892;8.384;2023-03-01T08:19:31;9.73;;;6.32;;
17382;SDS011;8809;51.892;8.384;2023-03-01T08:21:59;9.15;;;6.32;;
17382;SDS011;8809;51.892;8.384;2023-03-01T08:24:28;11.23;;;7.03;;
17382;SDS011;8809;51.892;8.384;2023-03-01T08:26:59;10.07;;;6.85;;
17382;SDS011;8809;51.892;8.384;2023-03-01T08:29:30;8.68;;;6.07;;
17382;SDS011;8809;51.892;8.384;2023-03-01T08:31:57;7.55;;;5.85;;
17382;SDS011;8809;51.892;8.384;2023-03-01T08:34:24;9.88;;;6.88;;
17382;SDS011;8809;51.892;8.384;2023-03-01T08:36:54;8.27;;;6.20;;
17382;SDS011;8809;51.892;8.384;2023-03-01T08:39:24;8.00;;;6.45;;
17382;SDS011;8809;51.892;8.384;2023-03-01T08:41:54;9.10;;;5.80;;
17382;SDS011;8809;51.892;8.384;2023-03-01T08:44:22;8.77;;;6.30;;
17382;SDS011;8809;51.892;8.384;2023-03-01T08:46:52;8.05;;;6.00;;
17382;SDS011;8809;51.892;8.384;2023-03-01T08:49:21;9.80;;;5.97;;
17382;SDS011;8809;51.892;8.384;2023-03-01T08:51:49;10.70;;;6.30;;
17382;SDS011;8809;51.892;8.384;2023-03-01T08:54:19;8.52;;;6.25;;
17382;SDS011;8809;51.892;8.384;2023-03-01T08:56:47;8.85;;;6.30;;
17382;SDS011;8809;51.892;8.384;2023-03-01T08:59:16;9.63;;;7.00;;
17382;SDS011;8809;51.892;8.384;2023-03-01T09:01:44;10.30;;;6.43;;
17382;SDS011;8809;51.892;8.384;2023-03-01T09:04:12;9.30;;;6.75;;
17382;SDS011;8809;51.892;8.384;2023-03-01T09:06:41;9.27;;;6.57;;
17382;SDS011;8809;51.892;8.384;2023-03-01T09:09:10;9.00;;;5.75;;
17382;SDS011;8809;51.892;8.384;2023-03-01T09:11:43;10.00;;;6.47;;
17382;SDS011;8809;51.892;8.384;2023-03-01T09:14:12;9.02;;;5.97;;
17382;SDS011;8809;51.892;8.384;2023-03-01T09:16:39;8.85;;;6.85;;
17382;SDS011;8809;51.892;8.384;2023-03-01T09:19:07;9.77;;;6.35;;
17382;SDS011;8809;51.892;8.384;2023-03-01T09:21:34;9.27;;;6.05;;
17382;SDS011;8809;51.892;8.384;2023-03-01T09:24:02;10.77;;;7.38;;
17382;SDS011;8809;51.892;8.384;2023-03-01T09:26:30;9.63;;;6.05;;
17382;SDS011;8809;51.892;8.384;2023-03-01T09:28:59;8.85;;;6.07;;
17382;SDS011;8809;51.892;8.384;2023-03-01T09:31:27;10.07;;;6.00;;
17382;SDS011;8809;51.892;8.384;2023-03-01T09:34:00;9.73;;;6.15;;
17382;SDS011;8809;51.892;8.384;2023-03-01T09:36:28;10.00;;;6.50;;
17382;SDS011;8809;51.892;8.384;2023-03-01T09:38:55;10.52;;;6.18;;
17382;SDS011;8809;51.892;8.384;2023-03-01T09:44:15;8.93;;;6.35;;
17382;SDS011;8809;51.892;8.384;2023-03-01T09:46:50;10.15;;;6.32;;
17382;SDS011;8809;51.892;8.384;2023-03-01T09:49:19;9.95;;;6.20;;
17382;SDS011;8809;51.892;8.384;2023-03-01T09:51:54;8.38;;;6.00;;
17382;SDS011;8809;51.892;8.384;2023-03-01T09:54:24;10.68;;;5.80;;
17382;SDS011;8809;51.892;8.384;2023-03-01T09:56:54;8.40;;;6.00;;
17382;SDS011;8809;51.892;8.384;2023-03-01T09:59:30;9.73;;;5.95;;
17382;SDS011;8809;51.892;8.384;2023-03-01T10:02:12;7.55;;;5.75;;
17382;SDS011;8809;51.892;8.384;2023-03-01T10:04:51;8.52;;;6.18;;
17382;SDS011;8809;51.892;8.384;2023-03-01T10:07:27;8.27;;;5.45;;
17382;SDS011;8809;51.892;8.384;2023-03-01T10:10:10;10.70;;;5.78;;
17382;SDS011;8809;51.892;8.384;2023-03-01T10:12:48;8.50;;;6.13;;
17382;SDS011;8809;51.892;8.384;2023-03-01T10:15:18;8.82;;;6.10;;
17382;SDS011;8809;51.892;8.384;2023-03-01T10:17:52;9.18;;;6.50;;
17382;SDS011;8809;51.892;8.384;2023-03-01T10:20:25;8.98;;;5.95;;
17382;SDS011;8809;51.892;8.384;2023-03-01T10:22:58;9.65;;;5.75;;
17382;SDS011;8809;51.892;8.384;2023-03-01T10:25:31;8.07;;;5.55;;
17382;SDS011;8809;51.892;8.384;2023-03-01T10:28:13;6.30;;;5.25;;
17382;SDS011;8809;51.892;8.384;2023-03-01T10:30:47;6.13;;;5.30;;
17382;SDS011;8809;51.892;8.384;2023-03-01T10:33:16;7.55;;;4.78;;
17382;SDS011;8809;51.892;8.384;2023-03-01T10:35:46;7.72;;;5.30;;
17382;SDS011;8809;51.892;8.384;2023-03-01T10:38:17;7.72;;;5.63;;
17382;SDS011;8809;51.892;8.384;2023-03-01T10:40:51;7.80;;;5.70;;
17382;SDS011;8809;51.892;8.384;2023-03-01T10:43:22;7.68;;;5.72;;
17382;SDS011;8809;51.892;8.384;2023-03-01T10:45:52;8.70;;;5.68;;
17382;SDS011;8809;51.892;8.384;2023-03-01T10:48:21;7.15;;;5.50;;
17382;SDS011;8809;51.892;8.384;2023-03-01T10:51:04;9.57;;;6.43;;
17382;SDS011;8809;51.892;8.384;2023-03-01T10:53:35;8.65;;;6.00;;
17382;SDS011;8809;51.892;8.384;2023-03-01T10:56:05;7.65;;;5.28;;
17382;SDS011;8809;51.892;8.384;2023-03-01T10:58:35;6.88;;;5.32;;
17382;SDS011;8809;51.892;8.384;2023-03-01T11:01:06;9.90;;;6.38;;
17382;SDS011;8809;51.892;8.384;2023-03-01T11:04:08;6.95;;;5.50;;
17382;SDS011;8809;51.892;8.384;2023-03-01T11:06:38;7.95;;;5.82;;
17382;SDS011;8809;51.892;8.384;2023-03-01T11:09:13;7.25;;;5.40;;
17382;SDS011;8809;51.892;8.384;2023-03-01T11:11:42;6.93;;;5.43;;
17382;SDS011;8809;51.892;8.384;2023-03-01T11:14:13;6.70;;;5.10;;
17382;SDS011;8809;51.892;8.384;2023-03-01T11:16:49;6.72;;;4.90;;
17382;SDS011;8809;51.892;8.384;2023-03-01T11:19:25;7.07;;;5.03;;
17382;SDS011;8809;51.892;8.384;2023-03-01T11:21:55;7.10;;;5.30;;
17382;SDS011;8809;51.892;8.384;2023-03-01T11:24:33;7.53;;;5.05;;
17382;SDS011;8809;51.892;8.384;2023-03-01T11:27:16;8.15;;;6.38;;
17382;SDS011;8809;51.892;8.384;2023-03-01T11:29:47;7.35;;;5.70;;
17382;SDS011;8809;51.892;8.384;2023-03-01T11:32:23;7.60;;;5.78;;
17382;SDS011;8809;51.892;8.384;2023-03-01T11:34:54;6.00;;;4.82;;
17382;SDS011;8809;51.892;8.384;2023-03-01T11:37:32;6.25;;;5.05;;
17382;SDS011;8809;51.892;8.384;2023-03-01T11:40:10;7.85;;;5.75;;
17382;SDS011;8809;51.892;8.384;2023-03-01T11:45:33;8.10;;;5.15;;
17382;SDS011;8809;51.892;8.384;2023-03-01T11:48:21;6.10;;;4.90;;
17382;SDS011;8809;51.892;8.384;2023-03-01T11:51:02;6.68;;;5.40;;
17382;SDS011;8809;51.892;8.384;2023-03-01T11:53:48;8.02;;;5.45;;
17382;SDS011;8809;51.892;8.384;2023-03-01T11:56:28;6.70;;;4.85;;
17382;SDS011;8809;51.892;8.384;2023-03-01T11:59:12;6.40;;;4.60;;
17382;SDS011;8809;51.892;8.384;2023-03-01T12:02:02;8.57;;;5.13;;
17382;SDS011;8809;51.892;8.384;2023-03-01T12:05:11;7.18;;;4.50;;
17382;SDS011;8809;51.892;8.384;2023-03-01T12:08:11;5.25;;;3.92;;
17382;SDS011;8809;51.892;8.384;2023-03-01T12:10:48;6.72;;;5.13;;
17382;SDS011;8809;51.892;8.384;2023-03-01T12:16:27;6.93;;;4.75;;
17382;SDS011;8809;51.892;8.384;2023-03-01T12:19:14;6.03;;;4.45;;
17382;SDS011;8809;51.892;8.384;2023-03-01T12:22:01;6.10;;;4.10;;
17382;SDS011;8809;51.892;8.384;2023-03-01T12:24:54;6.03;;;4.10;;
17382;SDS011;8809;51.892;8.384;2023-03-01T12:27:55;5.25;;;4.15;;
17382;SDS011;8809;51.892;8.384;2023-03-01T12:30:56;4.32;;;3.38;;
17382;SDS011;8809;51.892;8.384;2023-03-01T12:33:57;5.10;;;3.95;;
17382;SDS011;8809;51.892;8.384;2023-03-01T12:36:45;5.60;;;4.57;;
17382;SDS011;8809;51.892;8.384;2023-03-01T12:39:27;6.47;;;3.80;;
17382;SDS011;8809;51.892;8.384;2023-03-01T12:42:10;5.13;;;3.70;;
17382;SDS011;8809;51.892;8.384;2023-03-01T12:44:52;4.63;;;3.50;;
17382;SDS011;8809;51.892;8.384;2023-03-01T12:47:53;4.78;;;3.45;;
17382;SDS011;8809;51.892;8.384;2023-03-01T12:50:36;6.35;;;4.32;;
17382;SDS011;8809;51.892;8.384;2023-03-01T12:53:13;5.22;;;4.18;;
17382;SDS011;8809;51.892;8.384;2023-03-01T12:55:53;6.57;;;4.28;;
17382;SDS011;8809;51.892;8.384;2023-03-01T12:58:26;5.15;;;3.55;;
17382;SDS011;8809;51.892;8.384;2023-03-01T13:01:01;5.88;;;4.32;;
17382;SDS011;8809;51.892;8.384;2023-03-01T13:03:42;7.03;;;3.75;;
17382;SDS011;8809;51.892;8.384;2023-03-01T13:06:31;4.72;;;3.42;;
17382;SDS011;8809;51.892;8.384;2023-03-01T13:09:08;4.60;;;3.83;;
17382;SDS011;8809;51.892;8.384;2023-03-01T13:11:47;6.18;;;3.92;;
17382;SDS011;8809;51.892;8.384;2023-03-01T13:17:07;7.85;;;4.60;;
17382;SDS011;8809;51.892;8.384;2023-03-01T13:19:59;5.90;;;3.97;;
17382;SDS011;8809;51.892;8.384;2023-03-01T13:22:33;5.90;;;4.55;;
17382;SDS011;8809;51.892;8.384;2023-03-01T13:25:02;4.90;;;4.13;;
17382;SDS011;8809;51.892;8.384;2023-03-01T13:27:41;7.18;;;4.05;;
17382;SDS011;8809;51.892;8.384;2023-03-01T13:30:39;5.65;;;4.30;;
17382;SDS011;8809;51.892;8.384;2023-03-01T13:36:06;6.07;;;3.78;;
17382;SDS011;8809;51.892;8.384;2023-03-01T13:38:37;7.30;;;3.92;;
17382;SDS011;8809;51.892;8.384;2023-03-01T13:41:06;4.45;;;3.55;;
17382;SDS011;8809;51.892;8.384;2023-03-01T13:43:36;4.13;;;3.25;;
17382;SDS011;8809;51.892;8.384;2023-03-01T13:46:10;7.35;;;3.83;;
17382;SDS011;8809;51.892;8.384;2023-03-01T13:48:44;4.22;;;3.53;;
17382;SDS011;8809;51.892;8.384;2023-03-01T13:51:14;4.68;;;3.50;;
17382;SDS011;8809;51.892;8.384;2023-03-01T13:53:42;4.50;;;3.53;;
17382;SDS011;8809;51.892;8.384;2023-03-01T13:56:12;5.22;;;3.95;;
17382;SDS011;8809;51.892;8.384;2023-03-01T13:58:50;5.28;;;3.90;;
17382;SDS011;8809;51.892;8.384;2023-03-01T14:01:22;4.40;;;3.65;;
17382;SDS011;8809;51.892;8.384;2023-03-01T14:03:54;4.88;;;3.35;;
17382;SDS011;8809;51.892;8.384;2023-03-01T14:06:23;4.18;;;3.10;;
17382;SDS011;8809;51.892;8.384;2023-03-01T14:09:00;5.53;;;3.88;;
17382;SDS011;8809;51.892;8.384;2023-03-01T14:14:36;5.78;;;3.67;;
17382;SDS011;8809;51.892;8.384;2023-03-01T14:20:12;4.95;;;3.80;;
17382;SDS011;8809;51.892;8.384;2023-03-01T14:22:43;5.15;;;3.50;;
17382;SDS011;8809;51.892;8.384;2023-03-01T14:25:19;4.55;;;3.30;;
17382;SDS011;8809;51.892;8.384;2023-03-01T14:27:56;4.30;;;3.20;;
17382;SDS011;8809;51.892;8.384;2023-03-01T14:30:31;3.85;;;2.58;;
17382;SDS011;8809;51.892;8.384;2023-03-01T14:33:16;4.68;;;3.10;;
17382;SDS011;8809;51.892;8.384;2023-03-01T14:35:51;4.65;;;3.50;;
17382;SDS011;8809;51.892;8.384;2023-03-01T14:38:20;6.00;;;3.72;;
17382;SDS011;8809;51.892;8.384;2023-03-01T14:40:50;5.43;;;3.38;;
17382;SDS011;8809;51.892;8.384;2023-03-01T14:43:21;3.80;;;2.90;;
17382;SDS011;8809;51.892;8.384;2023-03-01T14:45:52;4.60;;;3.55;;
17382;SDS011;8809;51.892;8.384;2023-03-01T14:48:19;4.18;;;3.00;;
17382;SDS011;8809;51.892;8.384;2023-03-01T14:50:47;4.20;;;3.00;;
17382;SDS011;8809;51.892;8.384;2023-03-01T14:53:17;4.18;;;3.05;;
17382;SDS011;8809;51.892;8.384;2023-03-01T14:55:50;4.63;;;3.08;;
17382;SDS011;8809;51.892;8.384;2023-03-01T14:58:20;5.13;;;3.28;;
17382;SDS011;8809;51.892;8.384;2023-03-01T15:00:54;3.85;;;3.13;;
17382;SDS011;8809;51.892;8.384;2023-03-01T15:03:25;3.78;;;2.85;;
17382;SDS011;8809;51.892;8.384;2023-03-01T15:05:58;6.75;;;3.53;;
17382;SDS011;8809;51.892;8.384;2023-03-01T15:08:27;4.72;;;3.10;;
17382;SDS011;8809;51.892;8.384;2023-03-01T15:11:00;5.80;;;3.30;;
17382;SDS011;8809;51.892;8.384;2023-03-01T15:13:30;4.07;;;3.25;;
17382;SDS011;8809;51.892;8.384;2023-03-01T15:16:07;5.00;;;3.58;;
17382;SDS011;8809;51.892;8.384;2023-03-01T15:18:37;4.32;;;3.13;;
17382;SDS011;8809;51.892;8.384;2023-03-01T15:21:14;4.07;;;2.70;;
17382;SDS011;8809;51.892;8.384;2023-03-01T15:23:47;3.70;;;3.08;;
17382;SDS011;8809;51.892;8.384;2023-03-01T15:26:23;3.95;;;3.10;;
17382;SDS011;8809;51.892;8.384;2023-03-01T15:29:01;4.45;;;3.20;;
17382;SDS011;8809;51.892;8.384;2023-03-01T15:31:31;4.00;;;3.03;;
17382;SDS011;8809;51.892;8.384;2023-03-01T15:34:07;3.97;;;3.08;;
17382;SDS011;8809;51.892;8.384;2023-03-01T15:36:38;5.05;;;3.10;;
17382;SDS011;8809;51.892;8.384;2023-03-01T15:42:03;5.78;;;3.08;;
17382;SDS011;8809;51.892;8.384;2023-03-01T15:44:34;3.55;;;2.75;;
17382;SDS011;8809;51.892;8.384;2023-03-01T15:47:06;4.05;;;2.90;;
17382;SDS011;8809;51.892;8.384;2023-03-01T15:49:50;5.07;;;3.17;;
17382;SDS011;8809;51.892;8.384;2023-03-01T15:52:20;3.58;;;2.83;;
17382;SDS011;8809;51.892;8.384;2023-03-01T15:54:54;4.57;;;3.33;;
17382;SDS011;8809;51.892;8.384;2023-03-01T15:57:32;5.05;;;3.22;;
17382;SDS011;8809;51.892;8.384;2023-03-01T16:00:00;5.35;;;3.30;;
17382;SDS011;8809;51.892;8.384;2023-03-01T16:02:41;4.80;;;3.78;;
17382;SDS011;8809;51.892;8.384;2023-03-01T16:05:12;3.72;;;3.13;;
17382;SDS011;8809;51.892;8.384;2023-03-01T16:07:47;4.35;;;3.80;;
17382;SDS011;8809;51.892;8.384;2023-03-01T16:10:15;6.10;;;4.00;;
17382;SDS011;8809;51.892;8.384;2023-03-01T16:12:43;4.47;;;3.28;;